• Join FlightAware (Why Join?)
  • Login
  • US Flag 
06:18PM EDT


 

Airport Tracker/Info


-or-


 

Live Flight TrackerFlight Track Log ✈ ASH3770 ✈ 13-Apr-2013 ✈ KORD - KROC

Flight Track Log - Related Links

Times and Time Zones

All times are in EDT time to prevent confusion due to time zone crossing. See the ASH3770 flight status page for this flight to view local times or setup timezone preferences in your user account.

Time Position Orientation Groundspeed Altitude Reporting Facility
EDT Latitude Longitude Course Direction KTS MPH feet Rate Location/Type
02:27PM 42.0000 -87.9333 90° East 153 176 1,600  Level Chicago TRACON
02:28PM 42.0333 -87.9000 37° Northeast 230 265 3,600 2,280 Climbing Chicago TRACON
02:29PM 42.0833 -87.8500 37° Northeast 253 291 5,800 2,280 Climbing Chicago TRACON
02:30PM 42.1264 -87.7989 41° Northeast 258 297 7,400 2,100 Climbing Chicago Center
02:31PM 42.0754 -87.2020 78° East  Level FlightAware Approximate
02:31PM 42.1358 -87.6828 84° East 310 357 9,600  Level Chicago Center
02:32PM 42.1013 -87.0258 77° East  Level FlightAware Approximate
02:32PM 42.1311 -87.5581 93° East 330 380 12,300  Level Chicago Center
02:33PM 42.1168 -86.8481 90° East  Level FlightAware Approximate
02:33PM 42.1264 -87.4278 93° East 346 398 14,500  Level Chicago Center
02:34PM 42.1208 -87.2806 93° East 387 445 15,200 1,020 Climbing Chicago Center
02:35PM 42.1150 -87.1203 93° East 421 484 16,700 1,560 Climbing Chicago Center
02:36PM 42.1169 -86.9228 89° East 439 505 18,500 1,620 Climbing Chicago Center
02:37PM 42.1244 -86.7561 86° East 445 512 20,100 1,380 Climbing Chicago Center
02:38PM 42.1294 -86.6058 87° East 453 521 21,400 1,500 Climbing Chicago Center
02:39PM 42.1364 -86.4017 87° East 454 522 23,200 1,560 Climbing Chicago Center
02:40PM 42.1417 -86.2311 88° East 456 525 24,700 1,260 Climbing Chicago Center
02:41PM 42.1450 -86.0614 88° East 455 524 25,900 960 Climbing Chicago Center
02:42PM 42.1428 -85.9022 91° East 461 531 26,800 1,020 Climbing Chicago Center
02:43PM 42.1408 -85.6900 91° East 475 547 28,000 1,020 Climbing Chicago Center
02:44PM 42.1397 -85.5119 90° East 478 550 29,000 480 Climbing Chicago Center
02:45PM 42.1372 -85.3258 91° East 497 572 29,000  Level Chicago Center
02:47PM 42.1356 -85.1300 91° East 523 602 29,000  Level Chicago Center
02:48PM 42.1322 -84.9331 91° East 528 608 29,000  Level Chicago Center
02:49PM 42.1297 -84.7328 91° East 535 616 29,000  Level Chicago Center
02:50PM 42.1247 -84.4931 92° East 536 617 29,000  Level Chicago Center
02:51PM 42.1442 -84.2958 82° East 533 613 29,000  Level Chicago Center
02:52PM 42.1644 -84.0972 82° East 535 616 29,000  Level Chicago Center
02:53PM 42.1794 -83.8814 85° East 534 615 29,000  Level Cleveland Center
02:54PM 42.1972 -83.6861 83° East 534 615 29,000  Level Cleveland Center
02:55PM 42.2131 -83.4847 84° East 541 623 29,000  Level Cleveland Center
02:56PM 42.2325 -83.2811 83° East 541 623 29,000  Level Cleveland Center
02:57PM 42.2450 -83.0992 85° East 536 617 29,000  Level Cleveland Center
02:58PM 42.2617 -82.9006 83° East 536 617 29,000  Level Cleveland Center
02:59PM 42.2781 -82.7019 84° East 536 617 29,000  Level Cleveland Center
03:00PM 42.2942 -82.4975 84° East 536 617 29,000  Level Cleveland Center
03:01PM 42.3078 -82.2958 85° East 536 617 29,000  Level Cleveland Center
03:02PM 42.3231 -82.0939 84° East 536 617 29,000  Level Cleveland Center
03:03PM 42.3381 -81.8894 84° East 542 624 29,000 -360 Level Cleveland Center
03:04PM 42.3528 -81.6844 84° East 542 624 28,300 -1,020 Descending Cleveland Center
03:05PM 42.3672 -81.4656 85° East 534 615 27,000 -660 Descending Cleveland Center
03:06PM 42.3789 -81.2719 85° East 534 615 27,000  Level Cleveland Center
03:07PM 42.3925 -81.0781 85° East 528 608 27,000  Level Cleveland Center
03:08PM 42.4036 -80.8783 86° East 528 608 27,000  Level Cleveland Center
03:09PM 42.4497 -80.6900 72° East 523 602 27,000  Level Cleveland Center
03:10PM 42.4978 -80.4986 71° East 535 616 27,000  Level Cleveland Center
03:11PM 42.5433 -80.3069 72° East 542 624 27,000  Level Cleveland Center
03:12PM 42.5864 -80.1292 72° East 542 624 27,000  Level Cleveland Center
03:13PM 42.6417 -79.9142 71° East 535 616 27,000 -120 Level Cleveland Center
03:14PM 42.6883 -79.7217 72° East 541 623 26,800 -1,560 Descending Cleveland Center
03:15PM 42.7306 -79.5261 74° East 541 623 23,900 -3,000 Descending Cleveland Center
03:16PM 42.7767 -79.3358 72° East 541 623 20,800 -3,060 Descending Cleveland Center
03:17PM 42.8119 -79.1625 74° East 507 583 17,800 -2,940 Descending Cleveland Center
03:18PM 42.8517 -78.9944 72° East 479 551 15,000 -2,760 Descending Cleveland Center
03:19PM 42.8908 -78.8319 72° East 459 528 12,300 -2,640 Descending Cleveland Center
03:19PM 42.9000 -78.8000 69° East 441 507 11,700 -1,080 Descending Buffalo TRACON
03:20PM 42.9333 -78.6333 75° East 410 472 11,000 -660 Descending Buffalo TRACON
03:21PM 42.9528 -78.5408 74° East 404 465 10,600 -960 Descending Cleveland Center
03:21PM 42.9639 -78.4694 78° East 330 380 9,700 -1,440 Descending Cleveland Center
03:22PM 42.9756 -78.4181 73° East 353 406 9,200 -1,620 Descending Cleveland Center
03:23PM 43.0003 -78.2867 76° East 317 365 7,300 -1,080 Descending Cleveland Center
03:24PM 43.0228 -78.1694 75° East 317 365 7,000 -180 Descending Cleveland Center
03:25PM 43.0436 -78.0692 74° East 316 364 7,000 -540 Level Cleveland Center
03:26PM 43.0639 -77.9547 76° East 316 364 6,100 -1,020 Descending Cleveland Center
03:27PM 43.1183 -77.8697 49° Northeast 289 333 5,000 -1,320 Descending Cleveland Center
03:28PM 43.1936 -77.7981 35° Northeast 284 327 3,300 -1,200 Descending Cleveland Center
03:29PM 43.2164 -77.7031 72° East 251 289 2,500 -360 Descending Cleveland Center
03:30PM 43.2022 -77.6383 107° East 149 171 2,600 60 Climbing Cleveland Center